Time;durP1;ratioP1;P1;durP2;ratioP2;P2;SDS_P1;SDS_P2;PMS_P1;PMS_P2;Temp;Humidity;BMP_temperature;BMP_pressure;BME280_temperature;BME280_humidity;BME280_pressure;Samples;Min_cycle;Max_cycle;Signal;HPM_P1;HPM_P2
2024/04/04 00:00:06;;;;;;;11.50;1.67;;;14.10;97.20;;;;;;5065768;28;20056;-75
2024/04/04 00:02:37;;;;;;;6.63;1.50;;;14.10;97.30;;;;;;5063655;28;20135;-74
2024/04/04 00:05:03;;;;;;;12.82;3.03;;;14.10;97.30;;;;;;5064874;28;20032;-74
2024/04/04 00:07:30;;;;;;;8.65;2.10;;;14.10;97.30;;;;;;5054318;28;20490;-74
2024/04/04 00:09:57;;;;;;;10.90;2.35;;;14.00;97.20;;;;;;5048670;28;20144;-75
2024/04/04 00:12:25;;;;;;;6.75;2.00;;;14.10;97.60;;;;;;5047671;28;20029;-74
2024/04/04 00:14:50;;;;;;;13.43;2.50;;;14.00;97.40;;;;;;5056019;28;20123;-75
2024/04/04 00:17:16;;;;;;;14.65;1.95;;;14.00;97.40;;;;;;5055311;28;20373;-74
2024/04/04 00:19:43;;;;;;;12.15;2.70;;;14.00;97.40;;;;;;5048024;28;20033;-74
2024/04/04 00:22:09;;;;;;;12.65;2.50;;;14.00;97.40;;;;;;5049662;28;20112;-74
2024/04/04 00:24:34;;;;;;;9.02;2.40;;;14.00;97.60;;;;;;5050081;28;20117;-74
2024/04/04 00:27:00;;;;;;;2.03;1.15;;;14.00;97.40;;;;;;5050993;28;20415;-74
2024/04/04 00:29:26;;;;;;;6.82;2.28;;;14.00;97.40;;;;;;5056107;28;20068;-74
2024/04/04 00:31:51;;;;;;;15.40;3.22;;;14.00;97.40;;;;;;5061111;28;20025;-74
2024/04/04 00:34:19;;;;;;;5.35;1.63;;;14.00;97.60;;;;;;5060327;28;20056;-74
2024/04/04 00:36:44;;;;;;;9.02;2.63;;;14.00;97.60;;;;;;5062806;28;20029;-74
2024/04/04 00:39:10;;;;;;;9.40;1.95;;;14.00;97.60;;;;;;5058145;28;20064;-74
2024/04/04 00:41:35;;;;;;;7.68;2.25;;;14.00;97.60;;;;;;5049374;28;20040;-75
2024/04/04 00:44:01;;;;;;;10.00;2.00;;;14.00;97.50;;;;;;5059035;28;20039;-75
2024/04/04 00:46:27;;;;;;;16.33;2.58;;;14.00;97.60;;;;;;5052907;28;20106;-76
2024/04/04 00:48:54;;;;;;;8.23;2.97;;;14.00;97.60;;;;;;5052079;28;20476;-76
2024/04/04 00:51:21;;;;;;;12.88;2.63;;;14.00;97.80;;;;;;5054550;28;20106;-75
2024/04/04 00:53:47;;;;;;;9.23;2.28;;;14.00;97.70;;;;;;5051962;28;20115;-75
2024/04/04 00:56:12;;;;;;;10.15;3.47;;;14.00;97.70;;;;;;5056409;28;20477;-75
2024/04/04 00:58:39;;;;;;;18.40;3.08;;;14.00;97.70;;;;;;5055403;28;20053;-75
2024/04/04 01:01:05;;;;;;;11.65;3.03;;;13.90;97.70;;;;;;5066914;28;20040;-75
2024/04/04 01:03:31;;;;;;;7.72;1.80;;;14.00;97.70;;;;;;5054686;28;20041;-75
2024/04/04 01:05:56;;;;;;;8.52;2.03;;;14.00;97.80;;;;;;5054974;28;20035;-74
2024/04/04 01:08:22;;;;;;;14.65;2.65;;;14.00;97.70;;;;;;5054933;28;20057;-75
2024/04/04 01:10:48;;;;;;;7.55;3.20;;;14.00;97.80;;;;;;5062301;28;20111;-75
2024/04/04 01:13:15;;;;;;;6.68;1.90;;;13.90;97.60;;;;;;5061132;28;20543;-75
2024/04/04 01:15:41;;;;;;;5.10;1.23;;;13.90;97.60;;;;;;5062298;28;20115;-75
2024/04/04 01:18:07;;;;;;;9.15;2.22;;;13.90;97.70;;;;;;5050799;28;20116;-75
2024/04/04 01:20:32;;;;;;;10.02;2.53;;;13.90;97.70;;;;;;5052382;28;20111;-75
2024/04/04 01:22:58;;;;;;;8.90;2.28;;;13.90;97.50;;;;;;5058542;28;20032;-75
2024/04/04 01:25:24;;;;;;;8.10;1.88;;;13.90;97.60;;;;;;5051978;28;20028;-75
2024/04/04 01:27:50;;;;;;;9.27;1.92;;;13.90;97.70;;;;;;5047927;28;20500;-75
2024/04/04 01:30:16;;;;;;;21.27;2.53;;;13.90;97.60;;;;;;5056216;28;20032;-74
2024/04/04 01:32:42;;;;;;;12.80;2.88;;;13.90;97.50;;;;;;5056679;28;20071;-75
2024/04/04 01:35:07;;;;;;;11.10;3.20;;;13.90;97.50;;;;;;5064244;28;20025;-74
2024/04/04 01:37:34;;;;;;;9.25;2.83;;;13.90;97.60;;;;;;5065409;28;20045;-74
2024/04/04 01:39:59;;;;;;;14.50;2.85;;;13.90;97.50;;;;;;5050008;28;20472;-74
2024/04/04 01:42:25;;;;;;;3.97;2.05;;;13.90;97.50;;;;;;5054826;28;20033;-74
2024/04/04 01:44:51;;;;;;;10.63;2.13;;;13.90;97.50;;;;;;5063086;28;20030;-74
2024/04/04 01:47:16;;;;;;;7.30;2.20;;;13.90;97.50;;;;;;5048345;28;20460;-74
2024/04/04 01:49:43;;;;;;;5.68;1.73;;;13.90;97.50;;;;;;5050900;28;20032;-75
2024/04/04 01:52:09;;;;;;;11.13;2.47;;;13.90;97.50;;;;;;5057760;28;20124;-75
2024/04/04 01:54:34;;;;;;;15.95;1.75;;;13.90;97.60;;;;;;5048507;28;20120;-74
2024/04/04 01:57:00;;;;;;;3.78;1.88;;;13.80;97.50;;;;;;5050979;28;20047;-74
2024/04/04 01:59:26;;;;;;;13.10;1.98;;;13.90;97.60;;;;;;5052293;28;20144;-74
2024/04/04 02:01:51;;;;;;;7.72;2.10;;;13.90;97.50;;;;;;5060649;28;20040;-75
2024/04/04 02:04:17;;;;;;;13.10;3.00;;;13.90;97.50;;;;;;5060901;28;20032;-74
2024/04/04 02:06:43;;;;;;;15.13;2.80;;;13.90;97.40;;;;;;5048475;28;20048;-74
2024/04/04 02:09:09;;;;;;;9.18;2.30;;;13.90;97.50;;;;;;5047913;28;20053;-74
2024/04/04 02:11:35;;;;;;;12.77;2.10;;;13.90;97.40;;;;;;5046508;28;20033;-74
2024/04/04 02:14:01;;;;;;;6.60;1.90;;;13.90;97.40;;;;;;5047321;28;20041;-74
2024/04/04 02:16:26;;;;;;;9.98;2.97;;;13.90;97.40;;;;;;5048919;28;20058;-75
2024/04/04 02:18:52;;;;;;;13.80;2.67;;;13.80;97.40;;;;;;5058975;28;20045;-75
2024/04/04 02:21:18;;;;;;;6.63;2.10;;;13.90;97.40;;;;;;5050131;28;20071;-75
2024/04/04 02:23:44;;;;;;;17.15;2.65;;;13.80;97.30;;;;;;5056883;28;20175;-74
2024/04/04 02:26:09;;;;;;;3.67;1.20;;;13.80;97.40;;;;;;5059804;28;20537;-74
2024/04/04 02:28:35;;;;;;;8.75;2.05;;;13.80;97.40;;;;;;5060320;28;20383;-74
2024/04/04 02:31:00;;;;;;;3.42;1.35;;;13.80;97.40;;;;;;5055540;28;20634;-74
2024/04/04 02:33:26;;;;;;;4.93;1.70;;;13.80;97.50;;;;;;5060228;28;20036;-75
2024/04/04 02:35:57;;;;;;;7.15;1.77;;;13.80;97.50;;;;;;5060727;28;20835;-74
2024/04/04 02:38:23;;;;;;;5.53;1.50;;;13.80;97.50;;;;;;5057318;28;20044;-74
2024/04/04 02:40:49;;;;;;;10.65;2.75;;;13.80;97.40;;;;;;5047731;28;20035;-74
2024/04/04 02:43:16;;;;;;;4.85;1.65;;;13.80;97.40;;;;;;5057883;28;20090;-74
2024/04/04 02:45:43;;;;;;;6.43;1.95;;;13.80;97.40;;;;;;5053898;28;20580;-74
2024/04/04 02:48:09;;;;;;;11.20;2.25;;;13.80;97.40;;;;;;5054619;28;20134;-75
2024/04/04 02:50:34;;;;;;;1.88;0.65;;;13.80;97.30;;;;;;5061938;28;20064;-75
2024/04/04 02:53:00;;;;;;;9.18;2.38;;;13.80;97.30;;;;;;5052292;28;20488;-74
2024/04/04 02:55:27;;;;;;;9.77;2.83;;;13.80;97.20;;;;;;5058957;28;20035;-75
2024/04/04 02:57:53;;;;;;;23.75;3.17;;;13.70;97.10;;;;;;5055591;28;20045;-74
2024/04/04 03:00:19;;;;;;;6.13;1.98;;;13.70;97.10;;;;;;5063963;28;20052;-75
2024/04/04 03:02:45;;;;;;;7.22;2.33;;;13.70;97.20;;;;;;5053109;28;20417;-74
2024/04/04 03:05:10;;;;;;;7.25;2.30;;;13.70;97.30;;;;;;5064822;28;20090;-74
2024/04/04 03:07:36;;;;;;;7.07;2.75;;;13.60;97.30;;;;;;5060114;28;20032;-74
2024/04/04 03:10:02;;;;;;;4.03;1.65;;;13.60;97.30;;;;;;5049933;28;20032;-74
2024/04/04 03:12:28;;;;;;;5.22;0.90;;;13.60;97.30;;;;;;5060506;28;20107;-75
2024/04/04 03:14:54;;;;;;;15.35;1.33;;;13.60;97.30;;;;;;5048982;28;20548;-74
2024/04/04 03:17:19;;;;;;;19.23;2.92;;;13.60;97.30;;;;;;5053289;28;20124;-74
2024/04/04 03:19:45;;;;;;;5.65;1.77;;;13.60;97.30;;;;;;5053068;28;20041;-74
2024/04/04 03:22:11;;;;;;;12.70;4.20;;;13.70;97.20;;;;;;5052210;28;20033;-74
2024/04/04 03:24:36;;;;;;;8.80;3.35;;;13.70;97.00;;;;;;5052210;28;20392;-74
2024/04/04 03:27:02;;;;;;;4.78;1.45;;;13.80;97.00;;;;;;5050685;28;20037;-74
2024/04/04 03:29:28;;;;;;;3.90;1.38;;;13.70;96.90;;;;;;5056403;28;20028;-74
2024/04/04 03:31:54;;;;;;;2.60;1.10;;;13.70;96.80;;;;;;5063452;28;20086;-74
2024/04/04 03:34:19;;;;;;;4.63;1.58;;;13.70;96.80;;;;;;5057832;28;20043;-74
2024/04/04 03:36:47;;;;;;;7.88;1.48;;;13.70;96.70;;;;;;5057566;28;20028;-74
2024/04/04 03:39:13;;;;;;;7.22;1.02;;;13.70;96.70;;;;;;5050821;28;20039;-74
2024/04/04 03:41:39;;;;;;;14.18;2.47;;;13.70;96.70;;;;;;5049503;28;20033;-74
2024/04/04 03:44:05;;;;;;;6.53;1.05;;;13.70;96.70;;;;;;5056774;28;20036;-74
2024/04/04 03:46:32;;;;;;;1.67;0.95;;;13.70;96.60;;;;;;5055487;28;20036;-74
2024/04/04 03:48:58;;;;;;;7.10;1.75;;;13.70;96.60;;;;;;5048569;28;20079;-74
2024/04/04 03:51:24;;;;;;;12.45;2.60;;;13.80;96.60;;;;;;5057119;28;20024;-74
2024/04/04 03:53:50;;;;;;;11.75;2.10;;;13.70;96.40;;;;;;5057938;28;20060;-74
2024/04/04 03:56:15;;;;;;;8.57;1.05;;;13.80;96.40;;;;;;5050526;28;20024;-74
2024/04/04 03:58:41;;;;;;;13.20;1.70;;;13.70;96.30;;;;;;5058784;28;20412;-74
2024/04/04 04:01:07;;;;;;;6.85;1.55;;;13.70;96.20;;;;;;5057485;28;20116;-74
2024/04/04 04:03:34;;;;;;;8.90;1.92;;;13.70;96.20;;;;;;5060119;28;20039;-74
2024/04/04 04:06:00;;;;;;;7.53;1.15;;;13.60;96.20;;;;;;5061972;28;20293;-74
2024/04/04 04:08:26;;;;;;;29.30;2.25;;;13.60;96.20;;;;;;5060020;28;20051;-74
2024/04/04 04:10:52;;;;;;;1.75;1.10;;;13.60;96.20;;;;;;5061956;28;20616;-75
2024/04/04 04:13:18;;;;;;;2.40;0.50;;;13.50;96.20;;;;;;5050127;28;20040;-74
2024/04/04 04:15:56;;;;;;;0.32;0.32;;;13.50;96.20;;;;;;5052751;28;20150;-74
2024/04/04 04:18:22;;;;;;;3.38;1.45;;;13.40;96.10;;;;;;5055848;28;20097;-74
2024/04/04 04:23:32;;;;;;;7.70;1.38;;;13.40;96.20;;;;;;5064881;28;20563;-74
2024/04/04 04:25:57;;;;;;;1.17;0.70;;;13.40;96.30;;;;;;5058774;28;20086;-74
2024/04/04 04:28:23;;;;;;;3.83;1.30;;;13.30;96.10;;;;;;5051680;28;20037;-74
2024/04/04 04:30:51;;;;;;;6.18;1.20;;;13.30;96.10;;;;;;5060037;28;20017;-74
2024/04/04 04:33:17;;;;;;;5.55;1.10;;;13.30;96.10;;;;;;5050301;28;20082;-74
2024/04/04 04:35:43;;;;;;;17.50;2.15;;;13.30;96.00;;;;;;5068391;28;20033;-74
2024/04/04 04:38:09;;;;;;;3.97;0.93;;;13.30;96.00;;;;;;5052927;28;20500;-74
2024/04/04 04:40:34;;;;;;;15.07;1.60;;;13.40;96.00;;;;;;5057134;28;20058;-75
2024/04/04 04:43:00;;;;;;;6.75;1.35;;;13.30;96.00;;;;;;5054119;28;20051;-74
2024/04/04 04:45:26;;;;;;;8.90;1.42;;;13.30;96.00;;;;;;5048849;28;20028;-74
2024/04/04 04:47:51;;;;;;;0.57;0.57;;;13.30;96.00;;;;;;5055886;28;20079;-74
2024/04/04 04:50:17;;;;;;;1.40;0.65;;;13.30;95.90;;;;;;5060124;28;20032;-74
2024/04/04 04:52:43;;;;;;;3.45;1.27;;;13.20;95.90;;;;;;5057647;28;20452;-74
2024/04/04 04:55:09;;;;;;;7.35;1.73;;;13.20;96.00;;;;;;5053227;28;20492;-75
2024/04/04 04:57:35;;;;;;;8.02;2.03;;;13.20;96.00;;;;;;5055116;28;20403;-75
2024/04/04 05:00:01;;;;;;;4.57;1.27;;;13.30;95.90;;;;;;5062359;28;20086;-75
2024/04/04 05:02:26;;;;;;;13.20;1.65;;;13.30;95.80;;;;;;5065578;28;20032;-75
2024/04/04 05:04:52;;;;;;;8.18;1.52;;;13.30;95.80;;;;;;5055075;28;20033;-75
2024/04/04 05:07:18;;;;;;;11.88;1.75;;;13.40;95.70;;;;;;5053303;28;20032;-75
2024/04/04 05:09:44;;;;;;;6.47;2.35;;;13.40;95.60;;;;;;5063148;28;20048;-75
2024/04/04 05:12:09;;;;;;;8.80;1.83;;;13.40;95.70;;;;;;5058005;28;20033;-75
2024/04/04 05:14:35;;;;;;;9.90;1.85;;;13.40;95.60;;;;;;5051581;28;20033;-76
2024/04/04 05:17:01;;;;;;;2.88;1.27;;;13.40;95.60;;;;;;5057367;28;20146;-76
2024/04/04 05:19:27;;;;;;;7.80;1.55;;;13.50;95.60;;;;;;5052389;28;20854;-75
2024/04/04 05:21:52;;;;;;;3.83;1.30;;;13.50;95.60;;;;;;5053954;28;20131;-76
2024/04/04 05:24:18;;;;;;;8.00;1.70;;;13.50;95.50;;;;;;5058361;28;20052;-74
2024/04/04 05:26:44;;;;;;;8.15;1.92;;;13.50;95.40;;;;;;5064264;28;20037;-74
2024/04/04 05:29:12;;;;;;;12.27;2.13;;;13.60;95.40;;;;;;5064364;28;20472;-74
2024/04/04 05:31:42;;;;;;;6.10;1.25;;;13.60;95.30;;;;;;5061660;28;20029;-75
2024/04/04 05:34:09;;;;;;;6.90;1.60;;;13.50;95.30;;;;;;5055198;28;20044;-75
2024/04/04 05:36:34;;;;;;;6.30;1.42;;;13.50;95.20;;;;;;5060366;28;20044;-74
2024/04/04 05:39:00;;;;;;;9.38;2.00;;;13.60;95.20;;;;;;5046947;28;20555;-74
2024/04/04 05:41:25;;;;;;;5.68;1.83;;;13.60;95.10;;;;;;5058658;28;20506;-74
2024/04/04 05:43:51;;;;;;;7.20;1.40;;;13.50;95.10;;;;;;5047579;28;20037;-75
2024/04/04 05:46:16;;;;;;;8.38;1.70;;;13.60;95.10;;;;;;5052405;28;20024;-74
2024/04/04 05:48:42;;;;;;;5.45;1.38;;;13.60;95.10;;;;;;5055349;28;20527;-75
2024/04/04 05:51:08;;;;;;;7.30;1.17;;;13.60;95.10;;;;;;5055532;28;20112;-75
2024/04/04 05:53:33;;;;;;;6.38;2.05;;;13.50;95.10;;;;;;5054997;28;20024;-74
2024/04/04 05:55:59;;;;;;;4.13;1.08;;;13.60;95.10;;;;;;5054600;28;20540;-75
2024/04/04 05:58:24;;;;;;;2.17;0.65;;;13.60;95.00;;;;;;5051655;28;20044;-75
2024/04/04 06:00:51;;;;;;;3.38;0.68;;;13.50;95.00;;;;;;5064427;28;20090;-75
2024/04/04 06:03:17;;;;;;;1.77;0.55;;;13.50;95.10;;;;;;5059730;28;20447;-75
2024/04/04 06:05:42;;;;;;;2.75;0.82;;;13.40;95.20;;;;;;5060428;28;20055;-75
2024/04/04 06:08:09;;;;;;;5.07;2.10;;;13.40;95.20;;;;;;5055302;28;20031;-79
2024/04/04 06:10:35;;;;;;;2.47;0.75;;;13.40;95.30;;;;;;5063660;28;20035;-76
2024/04/04 06:13:01;;;;;;;3.15;0.65;;;13.40;95.50;;;;;;5054663;28;20480;-76
2024/04/04 06:15:27;;;;;;;1.55;0.82;;;13.40;95.50;;;;;;5056589;28;20365;-76
2024/04/04 06:17:52;;;;;;;7.15;1.30;;;13.40;95.50;;;;;;5059460;28;20039;-76
2024/04/04 06:20:18;;;;;;;2.65;1.17;;;13.40;95.50;;;;;;5066364;28;20033;-76
2024/04/04 06:22:44;;;;;;;17.10;2.38;;;13.50;95.40;;;;;;5056907;28;20067;-76
2024/04/04 06:25:09;;;;;;;3.72;1.30;;;13.50;95.60;;;;;;5056114;28;20052;-76
2024/04/04 06:27:37;;;;;;;7.68;1.42;;;13.60;95.30;;;;;;5069788;28;20360;-76
2024/04/04 06:30:03;;;;;;;4.43;1.17;;;13.70;95.30;;;;;;5055781;28;20037;-76
2024/04/04 06:32:29;;;;;;;10.02;1.48;;;13.60;95.20;;;;;;5058473;28;20102;-75
2024/04/04 06:34:55;;;;;;;9.43;1.70;;;13.70;95.20;;;;;;5057338;28;20059;-76
2024/04/04 06:37:20;;;;;;;4.70;0.93;;;13.70;95.10;;;;;;5062687;28;20480;-75
2024/04/04 06:39:46;;;;;;;7.55;0.93;;;13.80;95.00;;;;;;5065435;28;20097;-76
2024/04/04 06:42:12;;;;;;;4.00;1.40;;;13.70;95.00;;;;;;5052812;28;20510;-75
2024/04/04 06:44:37;;;;;;;9.80;1.40;;;13.80;95.00;;;;;;5067766;28;20032;-76
2024/04/04 06:47:03;;;;;;;5.13;1.77;;;13.80;95.00;;;;;;5063384;28;20503;-76
2024/04/04 06:49:29;;;;;;;5.15;1.52;;;13.80;95.00;;;;;;5062549;28;20064;-76
2024/04/04 06:51:55;;;;;;;5.85;1.67;;;13.80;95.00;;;;;;5062602;28;20068;-76
2024/04/04 06:54:21;;;;;;;6.47;1.40;;;13.80;95.00;;;;;;5065441;28;20544;-76
2024/04/04 06:56:47;;;;;;;5.45;1.90;;;13.90;95.10;;;;;;5063433;28;20107;-76
2024/04/04 06:59:13;;;;;;;5.68;1.60;;;13.90;95.00;;;;;;5052478;28;20480;-76
2024/04/04 07:01:38;;;;;;;1.95;0.68;;;13.90;95.00;;;;;;5052672;28;20033;-76
2024/04/04 07:04:05;;;;;;;8.82;2.03;;;13.90;95.10;;;;;;5057118;28;20556;-76
2024/04/04 07:06:31;;;;;;;4.97;1.90;;;14.00;95.00;;;;;;5064085;28;20136;-76
2024/04/04 07:08:57;;;;;;;7.90;1.23;;;13.90;94.90;;;;;;5060982;28;20112;-76
2024/04/04 07:11:23;;;;;;;7.60;2.25;;;14.00;95.00;;;;;;5058523;28;20031;-76
2024/04/04 07:13:48;;;;;;;6.18;2.72;;;14.00;95.10;;;;;;5053834;28;20415;-76
2024/04/04 07:16:14;;;;;;;8.30;1.65;;;14.00;95.20;;;;;;5057497;28;20035;-76
2024/04/04 07:18:42;;;;;;;9.73;1.70;;;14.00;95.10;;;;;;5068386;28;20036;-76
2024/04/04 07:21:08;;;;;;;9.82;1.67;;;14.00;95.10;;;;;;5056813;28;20098;-76
2024/04/04 07:23:34;;;;;;;7.57;1.85;;;14.10;95.10;;;;;;5062264;28;20041;-76
2024/04/04 07:26:00;;;;;;;6.45;1.90;;;14.00;95.20;;;;;;5060661;28;20021;-76
2024/04/04 07:28:25;;;;;;;4.03;2.00;;;14.10;95.30;;;;;;5054036;28;20055;-76
2024/04/04 07:30:51;;;;;;;7.57;1.80;;;14.10;95.30;;;;;;5060777;28;20608;-76
2024/04/04 07:33:17;;;;;;;2.90;1.60;;;14.10;95.30;;;;;;5059495;28;20083;-76
2024/04/04 07:35:43;;;;;;;3.17;1.75;;;14.10;95.20;;;;;;5063467;28;20033;-76
2024/04/04 07:38:10;;;;;;;3.53;1.70;;;14.10;95.10;;;;;;5065280;28;20047;-76
2024/04/04 07:40:39;;;;;;;5.28;2.03;;;14.10;95.10;;;;;;5057200;28;20420;-74
2024/04/04 07:43:07;;;;;;;6.50;2.10;;;14.10;95.60;;;;;;5052622;28;20040;-76
2024/04/04 07:45:39;;;;;;;4.80;1.92;;;14.10;95.50;;;;;;5062995;28;20036;-75
2024/04/04 07:48:10;;;;;;;2.03;1.67;;;14.10;95.40;;;;;;5049640;28;20033;-75
2024/04/04 07:50:37;;;;;;;2.83;1.85;;;14.20;95.50;;;;;;5057624;28;20472;-75
2024/04/04 07:53:03;;;;;;;4.88;2.50;;;14.20;95.30;;;;;;5065821;28;20047;-75
2024/04/04 07:55:30;;;;;;;2.30;1.70;;;14.20;95.40;;;;;;5057315;28;20033;-75
2024/04/04 07:57:56;;;;;;;2.15;1.55;;;14.20;95.30;;;;;;5063649;28;20033;-76
2024/04/04 08:00:22;;;;;;;3.30;1.20;;;14.20;95.40;;;;;;5054926;28;20053;-76
2024/04/04 08:02:48;;;;;;;3.72;1.98;;;14.30;95.40;;;;;;5054296;28;20070;-76
2024/04/04 08:05:14;;;;;;;5.80;2.00;;;14.20;95.40;;;;;;5066478;28;20077;-76
2024/04/04 08:07:40;;;;;;;2.45;1.10;;;14.20;95.30;;;;;;5052395;28;20029;-76
2024/04/04 08:10:08;;;;;;;6.38;2.28;;;14.30;95.40;;;;;;5051663;28;20035;-76
2024/04/04 08:12:35;;;;;;;4.47;2.03;;;14.30;95.50;;;;;;5061053;28;20485;-77
2024/04/04 08:15:04;;;;;;;7.35;2.05;;;14.30;95.50;;;;;;5054026;28;20037;-77
2024/04/04 08:17:32;;;;;;;6.57;2.20;;;14.30;95.50;;;;;;5059775;28;20033;-77
2024/04/04 08:19:58;;;;;;;1.98;1.50;;;14.30;95.60;;;;;;5050276;28;20033;-76
2024/04/04 08:22:24;;;;;;;4.00;2.08;;;14.30;95.60;;;;;;5062679;28;20032;-76
2024/04/04 08:24:50;;;;;;;5.18;1.77;;;14.30;95.60;;;;;;5053003;28;20400;-76
2024/04/04 08:27:15;;;;;;;3.47;1.95;;;14.30;95.60;;;;;;5069516;28;20036;-76
2024/04/04 08:29:41;;;;;;;3.08;1.42;;;14.30;95.70;;;;;;5053425;28;20033;-76
2024/04/04 08:32:08;;;;;;;5.53;2.08;;;14.30;95.60;;;;;;5057969;28;20040;-76
2024/04/04 08:34:34;;;;;;;1.98;1.13;;;14.30;95.70;;;;;;5064278;28;20040;-76
2024/04/04 08:36:59;;;;;;;3.63;1.90;;;14.30;95.80;;;;;;5067896;28;20031;-77
2024/04/04 08:39:25;;;;;;;4.55;1.75;;;14.30;95.90;;;;;;5066209;28;20392;-77
2024/04/04 08:41:53;;;;;;;3.92;1.95;;;14.30;96.00;;;;;;5055611;28;20120;-77
2024/04/04 08:44:19;;;;;;;4.13;1.80;;;14.30;96.00;;;;;;5051652;28;20036;-77
2024/04/04 08:46:46;;;;;;;7.90;2.22;;;14.30;96.10;;;;;;5067416;28;20050;-76
2024/04/04 08:49:13;;;;;;;3.78;1.95;;;14.20;96.20;;;;;;5055939;28;20041;-76
2024/04/04 08:51:40;;;;;;;3.38;1.90;;;14.20;96.20;;;;;;5051806;28;20020;-76
2024/04/04 08:54:06;;;;;;;3.83;1.17;;;14.20;96.30;;;;;;5058880;28;20061;-79
2024/04/04 08:56:32;;;;;;;2.08;1.88;;;14.30;96.40;;;;;;5062862;28;20445;-78
2024/04/04 08:58:58;;;;;;;1.17;0.93;;;14.20;96.40;;;;;;5066900;28;20052;-78
2024/04/04 09:01:24;;;;;;;4.97;1.90;;;14.30;96.50;;;;;;5052963;28;20025;-79
2024/04/04 09:03:49;;;;;;;1.75;1.25;;;14.30;96.60;;;;;;5061164;28;20479;-79
2024/04/04 09:06:18;;;;;;;1.55;1.45;;;14.20;96.70;;;;;;5059466;28;20064;-79
2024/04/04 09:08:45;;;;;;;2.10;1.10;;;14.20;96.80;;;;;;5053526;28;20067;-79
2024/04/04 09:11:11;;;;;;;4.18;1.77;;;14.20;96.90;;;;;;5068933;28;20036;-78
2024/04/04 09:13:37;;;;;;;3.72;1.52;;;14.20;97.00;;;;;;5066237;28;20495;-78
2024/04/04 09:16:03;;;;;;;2.70;1.48;;;14.20;97.10;;;;;;5055332;28;20029;-79
2024/04/04 09:18:29;;;;;;;3.28;1.10;;;14.10;97.30;;;;;;5067550;28;20434;-78
2024/04/04 09:20:59;;;;;;;3.15;1.90;;;14.10;97.40;;;;;;5053580;28;20613;-78
2024/04/04 09:23:26;;;;;;;0.98;0.80;;;14.00;97.60;;;;;;5068038;28;20032;-78
2024/04/04 09:25:51;;;;;;;1.20;1.10;;;14.00;97.90;;;;;;5064917;28;20071;-78
2024/04/04 09:28:19;;;;;;;0.68;0.68;;;14.00;98.00;;;;;;5066567;28;20060;-79
2024/04/04 09:30:49;;;;;;;0.90;0.90;;;14.00;98.20;;;;;;5064467;28;20040;-79
2024/04/04 09:33:18;;;;;;;1.30;1.20;;;14.00;98.40;;;;;;5059659;28;20484;-78
2024/04/04 09:35:46;;;;;;;2.28;1.48;;;13.90;98.50;;;;;;5059134;28;20047;-78
2024/04/04 09:38:13;;;;;;;1.13;1.02;;;14.00;98.60;;;;;;5049749;28;20396;-80
2024/04/04 09:40:38;;;;;;;1.15;1.02;;;13.90;98.70;;;;;;5045763;28;20040;-79
2024/04/04 09:43:04;;;;;;;0.47;0.43;;;13.90;98.90;;;;;;5051756;28;20024;-80
2024/04/04 09:45:30;;;;;;;5.15;3.35;;;13.90;99.00;;;;;;5058969;28;20228;-79
2024/04/04 09:47:56;;;;;;;0.38;0.38;;;13.90;99.10;;;;;;5048945;28;20036;-79
2024/04/04 09:50:22;;;;;;;0.65;0.65;;;13.90;99.20;;;;;;5049674;28;20035;-80
2024/04/04 09:52:48;;;;;;;1.38;1.23;;;13.90;99.30;;;;;;5049100;28;20669;-80
2024/04/04 09:55:21;;;;;;;0.82;0.82;;;13.90;99.30;;;;;;5062679;28;20044;-80
2024/04/04 09:57:48;;;;;;;1.40;1.30;;;13.90;99.50;;;;;;5067090;28;20044;-80
2024/04/04 10:00:18;;;;;;;0.88;0.88;;;13.90;99.60;;;;;;5073065;28;20068;-82
2024/04/04 10:02:56;;;;;;;5.45;1.25;;;14.00;99.60;;;;;;5054872;28;20047;-83
2024/04/04 10:05:31;;;;;;;1.90;1.10;;;14.00;99.70;;;;;;5062878;28;20480;-83
2024/04/04 10:08:15;;;;;;;2.10;1.58;;;14.00;99.80;;;;;;5051775;28;20032;-83
2024/04/04 10:10:42;;;;;;;2.67;1.40;;;13.90;99.90;;;;;;5059669;28;20032;-83
2024/04/04 10:13:12;;;;;;;1.48;1.35;;;14.00;99.90;;;;;;5068440;28;20128;-83
2024/04/04 10:15:47;;;;;;;2.60;1.17;;;14.00;99.90;;;;;;5059672;28;20024;-83
2024/04/04 10:18:14;;;;;;;1.20;1.10;;;14.00;99.90;;;;;;5069781;28;20044;-83
2024/04/04 10:20:53;;;;;;;2.70;1.00;;;14.00;99.90;;;;;;5062174;28;20040;-83
2024/04/04 10:23:25;;;;;;;1.83;1.30;;;14.10;99.90;;;;;;5061853;28;20033;-82
2024/04/04 10:25:51;;;;;;;1.35;1.20;;;14.00;99.90;;;;;;5051761;28;20041;-83
2024/04/04 10:28:18;;;;;;;9.05;5.00;;;14.00;99.90;;;;;;5064120;28;20021;-83
2024/04/04 10:30:47;;;;;;;19.48;7.28;;;14.10;99.90;;;;;;5063730;28;20059;-83
2024/04/04 10:33:15;;;;;;;1.58;0.93;;;14.00;99.90;;;;;;5070306;28;20033;-83
2024/04/04 10:35:41;;;;;;;3.30;1.27;;;14.10;99.90;;;;;;5068310;28;20507;-82
2024/04/04 10:38:13;;;;;;;5.47;1.30;;;14.10;99.90;;;;;;5051614;28;20035;-83
2024/04/04 10:40:40;;;;;;;1.67;1.55;;;14.10;99.90;;;;;;5051694;28;20033;-84
2024/04/04 10:43:07;;;;;;;2.28;1.30;;;14.10;99.90;;;;;;5062790;28;20033;-83
2024/04/04 10:45:34;;;;;;;6.20;1.52;;;14.10;99.90;;;;;;5062703;28;20036;-83
2024/04/04 10:48:00;;;;;;;1.27;1.13;;;14.20;99.90;;;;;;5051516;28;20089;-83
2024/04/04 10:50:33;;;;;;;1.95;0.80;;;14.10;99.90;;;;;;5063496;28;20100;-84
2024/04/04 10:52:59;;;;;;;2.85;1.60;;;14.10;99.90;;;;;;5054810;28;20032;-83
2024/04/04 10:55:26;;;;;;;3.58;3.00;;;14.20;99.90;;;;;;5062852;28;20032;-83
2024/04/04 10:57:55;;;;;;;5.03;3.13;;;14.20;99.90;;;;;;5052924;28;20064;-81
2024/04/04 11:00:26;;;;;;;2.47;2.20;;;14.20;99.90;;;;;;5053974;28;20515;-81
2024/04/04 11:02:52;;;;;;;2.15;1.23;;;14.20;99.90;;;;;;5068969;28;20584;-77
2024/04/04 11:05:18;;;;;;;0.85;0.85;;;14.30;99.90;;;;;;5065099;28;20028;-82
2024/04/04 11:07:45;;;;;;;0.85;0.85;;;14.30;99.90;;;;;;5061474;28;20064;-85
2024/04/04 11:10:12;;;;;;;1.83;1.10;;;14.40;99.90;;;;;;5060918;28;20073;-84
2024/04/04 11:12:38;;;;;;;0.82;0.82;;;14.40;99.90;;;;;;5069740;28;20081;-84
2024/04/04 11:15:07;;;;;;;2.65;1.30;;;14.40;99.90;;;;;;5052672;28;20108;-84
2024/04/04 11:17:37;;;;;;;0.80;0.63;;;14.50;99.90;;;;;;5052190;28;20118;-84
2024/04/04 11:20:06;;;;;;;1.90;1.23;;;14.50;99.90;;;;;;5052005;28;20059;-86
2024/04/04 11:22:34;;;;;;;3.38;1.63;;;14.50;99.90;;;;;;5050508;28;20029;-86
2024/04/04 11:24:59;;;;;;;1.65;1.15;;;14.50;99.90;;;;;;5055723;28;20033;-84
2024/04/04 11:27:25;;;;;;;4.85;1.73;;;14.50;99.90;;;;;;5067261;28;20400;-85
2024/04/04 11:29:51;;;;;;;1.77;1.30;;;14.60;99.90;;;;;;5059071;28;20357;-82
2024/04/04 11:32:16;;;;;;;1.45;0.77;;;14.60;99.90;;;;;;5064073;28;20125;-82
2024/04/04 11:34:42;;;;;;;1.48;1.00;;;14.60;99.90;;;;;;5053219;28;20098;-83
2024/04/04 11:37:08;;;;;;;2.83;1.40;;;14.60;99.90;;;;;;5061166;28;20086;-82
2024/04/04 11:39:34;;;;;;;3.45;1.48;;;14.70;99.90;;;;;;5051045;28;20037;-82
2024/04/04 11:42:00;;;;;;;6.68;2.28;;;14.60;99.90;;;;;;5050500;28;20025;-84
2024/04/04 11:44:26;;;;;;;8.48;2.47;;;14.70;99.90;;;;;;5062763;28;20499;-81
2024/04/04 11:46:51;;;;;;;7.05;2.33;;;14.70;99.90;;;;;;5058752;28;20040;-75
2024/04/04 11:49:18;;;;;;;12.05;2.50;;;14.60;99.90;;;;;;5053770;28;20032;-90
2024/04/04 11:51:45;;;;;;;6.40;1.90;;;14.70;99.90;;;;;;5061862;28;20451;-82
2024/04/04 11:54:10;;;;;;;7.05;1.58;;;14.70;99.90;;;;;;5064051;28;20043;-81
2024/04/04 11:56:39;;;;;;;10.57;2.78;;;14.70;99.90;;;;;;5050445;28;20033;-80
2024/04/04 11:59:05;;;;;;;14.18;2.45;;;14.80;99.90;;;;;;5052697;28;20052;-80
2024/04/04 12:01:30;;;;;;;9.25;2.08;;;14.90;99.90;;;;;;5053554;28;20039;-81
2024/04/04 12:03:57;;;;;;;7.97;1.85;;;14.90;99.90;;;;;;5067930;28;20116;-81
2024/04/04 12:06:23;;;;;;;11.00;2.92;;;14.90;99.90;;;;;;5060130;28;20041;-81
2024/04/04 12:08:49;;;;;;;9.82;2.55;;;14.90;99.90;;;;;;5054240;28;20033;-82
2024/04/04 12:11:15;;;;;;;12.50;2.88;;;14.90;99.90;;;;;;5058438;28;20037;-84
2024/04/04 12:13:41;;;;;;;3.22;1.70;;;14.90;99.90;;;;;;5060783;28;20033;-84
2024/04/04 12:16:08;;;;;;;5.15;1.73;;;14.80;99.90;;;;;;5058321;28;20599;-83
2024/04/04 12:21:18;;;;;;;12.95;2.35;;;14.80;99.90;;;;;;5060234;28;20029;-83
2024/04/04 12:23:45;;;;;;;13.70;2.30;;;14.80;99.90;;;;;;5065286;28;20059;-83
2024/04/04 12:26:12;;;;;;;10.57;2.78;;;14.80;99.90;;;;;;5067725;28;20047;-83
2024/04/04 12:28:38;;;;;;;11.13;1.75;;;14.80;99.90;;;;;;5061618;28;20047;-84
2024/04/04 12:31:05;;;;;;;12.82;2.08;;;14.90;99.90;;;;;;5048120;28;20112;-83
2024/04/04 12:33:31;;;;;;;14.07;2.80;;;14.80;99.90;;;;;;5049652;28;20119;-83
2024/04/04 12:35:57;;;;;;;11.07;2.30;;;14.80;99.90;;;;;;5053431;28;20035;-83
2024/04/04 12:38:23;;;;;;;11.55;2.28;;;14.70;99.90;;;;;;5060281;28;20436;-84
2024/04/04 12:40:48;;;;;;;12.18;2.45;;;14.70;99.90;;;;;;5060332;28;20040;-84
2024/04/04 12:43:15;;;;;;;9.57;2.30;;;14.70;99.90;;;;;;5048900;28;20091;-83
2024/04/04 12:45:40;;;;;;;11.65;2.55;;;14.70;99.90;;;;;;5049784;28;20064;-84